Time;durP1;ratioP1;P1;durP2;ratioP2;P2;SDS_P1;SDS_P2;PMS_P1;PMS_P2;Temp;Humidity;BMP_temperature;BMP_pressure;BME280_temperature;BME280_humidity;BME280_pressure;Samples;Min_cycle;Max_cycle;Signal;HPM_P1;HPM_P2
2023/03/21 00:02:30;;;;;;;4.00;3.70;;;11.00;36.50;;;;;;10462575;28;20235;-72
2023/03/21 00:07:34;;;;;;;3.90;3.50;;;11.00;36.50;;;;;;10459989;28;20228;-72
2023/03/21 00:12:38;;;;;;;4.93;3.70;;;10.90;36.50;;;;;;10454541;28;20714;-74
2023/03/21 00:17:43;;;;;;;4.30;3.77;;;10.90;36.90;;;;;;10453297;28;20229;-74
2023/03/21 00:22:47;;;;;;;3.87;3.53;;;10.90;36.70;;;;;;10459176;28;20224;-74
2023/03/21 00:27:51;;;;;;;3.83;3.43;;;10.90;36.70;;;;;;10460810;28;20228;-74
2023/03/21 00:33:11;;;;;;;4.03;3.63;;;10.90;37.00;;;;;;10460426;28;20307;-74
2023/03/21 00:38:24;;;;;;;3.53;3.10;;;10.90;36.90;;;;;;10453077;28;20667;-73
2023/03/21 00:43:29;;;;;;;4.70;3.87;;;10.90;37.10;;;;;;10453238;28;20636;-73
2023/03/21 00:48:33;;;;;;;3.80;3.50;;;10.90;37.40;;;;;;10456091;28;20227;-73
2023/03/21 00:53:36;;;;;;;4.17;3.77;;;10.90;37.10;;;;;;10449628;28;20278;-74
2023/03/21 00:58:40;;;;;;;3.70;3.40;;;10.90;37.30;;;;;;10456704;28;20276;-73
2023/03/21 01:03:49;;;;;;;4.53;3.10;;;10.90;37.60;;;;;;10456060;28;20598;-72
2023/03/21 01:08:52;;;;;;;3.57;3.23;;;11.00;37.30;;;;;;10452714;28;20252;-72
2023/03/21 01:13:57;;;;;;;3.73;3.43;;;11.00;37.30;;;;;;10460356;28;20224;-72
2023/03/21 01:19:24;;;;;;;3.50;3.20;;;11.10;37.60;;;;;;10454299;28;20378;-75
2023/03/21 01:24:46;;;;;;;3.77;3.20;;;11.20;37.50;;;;;;10450780;28;20229;-74
2023/03/21 01:30:00;;;;;;;2.90;2.70;;;11.20;37.30;;;;;;10455897;28;20278;-72
2023/03/21 01:35:03;;;;;;;5.73;3.40;;;11.20;37.40;;;;;;10452899;28;20689;-73
2023/03/21 01:40:11;;;;;;;3.60;3.30;;;11.20;37.30;;;;;;10460481;28;20228;-72
2023/03/21 01:46:00;;;;;;;3.57;3.20;;;11.30;37.40;;;;;;10454469;28;20229;-72
2023/03/21 01:51:06;;;;;;;4.07;3.10;;;11.40;38.00;;;;;;10422737;28;20232;-72
2023/03/21 01:56:13;;;;;;;3.30;3.00;;;11.30;37.40;;;;;;10452895;28;20228;-72
2023/03/21 02:01:17;;;;;;;3.77;3.30;;;11.40;37.50;;;;;;10444464;28;20232;-72
2023/03/21 02:06:30;;;;;;;3.60;3.30;;;11.30;37.30;;;;;;10452424;28;20609;-74
2023/03/21 02:11:34;;;;;;;3.40;3.10;;;11.20;37.80;;;;;;10447197;28;20220;-73
2023/03/21 02:16:47;;;;;;;3.60;3.30;;;11.20;37.50;;;;;;10454525;28;20615;-74
2023/03/21 02:22:21;;;;;;;3.30;3.00;;;11.20;38.10;;;;;;10452242;28;20237;-71
2023/03/21 02:27:25;;;;;;;3.80;3.50;;;11.10;38.20;;;;;;10453475;28;20739;-72
2023/03/21 02:32:40;;;;;;;3.67;2.97;;;11.10;37.80;;;;;;10450600;28;20233;-72
2023/03/21 02:37:48;;;;;;;3.20;3.00;;;11.10;38.60;;;;;;10457940;28;20224;-74
2023/03/21 02:43:07;;;;;;;3.27;2.97;;;11.00;38.30;;;;;;10454343;28;20638;-73
2023/03/21 02:48:30;;;;;;;3.13;2.87;;;11.00;38.30;;;;;;10460744;28;20232;-72
2023/03/21 02:53:58;;;;;;;3.40;3.10;;;11.00;38.30;;;;;;10456889;28;20233;-72
2023/03/21 02:59:24;;;;;;;3.30;3.10;;;11.00;38.50;;;;;;10458115;28;20680;-72
2023/03/21 03:04:28;;;;;;;3.27;3.07;;;11.10;38.30;;;;;;10457283;28;20235;-72
2023/03/21 03:09:42;;;;;;;3.13;2.93;;;11.00;38.20;;;;;;10459913;28;20290;-73
2023/03/21 03:14:53;;;;;;;3.00;2.80;;;11.00;38.90;;;;;;10455482;28;20229;-73
2023/03/21 03:20:18;;;;;;;3.80;3.03;;;11.10;38.80;;;;;;10457134;28;20235;-73
2023/03/21 03:25:27;;;;;;;3.23;2.93;;;11.10;38.80;;;;;;10453963;28;20238;-72
2023/03/21 03:30:46;;;;;;;3.57;3.27;;;11.20;38.70;;;;;;10462531;28;20397;-74
2023/03/21 03:36:13;;;;;;;3.47;3.17;;;11.20;38.30;;;;;;10460712;28;20708;-72
2023/03/21 03:41:41;;;;;;;3.13;2.93;;;11.20;38.50;;;;;;10455572;28;20235;-73
2023/03/21 03:47:08;;;;;;;3.37;3.17;;;11.20;38.80;;;;;;10450609;28;20236;-74
2023/03/21 03:52:25;;;;;;;2.83;2.63;;;11.20;38.60;;;;;;10457858;28;20699;-74
2023/03/21 03:57:29;;;;;;;4.07;3.30;;;11.20;38.60;;;;;;10458203;28;20282;-72
2023/03/21 04:02:33;;;;;;;3.37;3.07;;;11.20;38.70;;;;;;10456228;28;20232;-73
2023/03/21 04:07:36;;;;;;;3.50;3.23;;;11.20;38.20;;;;;;10461440;28;20229;-73
2023/03/21 04:12:40;;;;;;;3.73;3.47;;;11.30;38.40;;;;;;10459957;28;20570;-73
2023/03/21 04:17:44;;;;;;;3.80;3.50;;;11.40;38.70;;;;;;10459336;28;20232;-75
2023/03/21 04:22:47;;;;;;;3.67;3.37;;;11.40;38.30;;;;;;10454391;28;20301;-70
2023/03/21 04:27:51;;;;;;;3.00;2.80;;;11.40;38.20;;;;;;10449978;28;20229;-71
2023/03/21 04:32:55;;;;;;;3.53;3.23;;;11.40;38.40;;;;;;10453453;28;20224;-72
2023/03/21 04:37:59;;;;;;;3.27;2.97;;;11.50;38.30;;;;;;10452371;28;20394;-72
2023/03/21 04:43:03;;;;;;;4.87;3.23;;;11.50;38.30;;;;;;10455125;28;20232;-72
2023/03/21 04:48:06;;;;;;;3.50;3.20;;;11.50;38.40;;;;;;10455845;28;21025;-72
2023/03/21 04:53:10;;;;;;;3.30;3.00;;;11.50;38.20;;;;;;10460629;28;20992;-72
2023/03/21 04:58:15;;;;;;;4.10;3.70;;;11.50;38.20;;;;;;10454835;28;20228;-72
2023/03/21 05:03:20;;;;;;;3.57;3.27;;;11.50;38.40;;;;;;10458630;28;20229;-70
2023/03/21 05:08:24;;;;;;;4.20;3.30;;;11.40;38.20;;;;;;10457130;28;20300;-71
2023/03/21 05:13:28;;;;;;;3.60;3.30;;;11.40;38.40;;;;;;10455679;28;20228;-72
2023/03/21 05:18:33;;;;;;;3.97;3.67;;;11.30;38.50;;;;;;10452652;28;20274;-71
2023/03/21 05:23:38;;;;;;;3.60;3.13;;;11.30;38.30;;;;;;10453931;28;20895;-73
2023/03/21 05:28:43;;;;;;;3.90;3.60;;;11.30;38.40;;;;;;10463277;28;20231;-73
2023/03/21 05:33:47;;;;;;;3.27;2.97;;;11.40;38.70;;;;;;10454382;28;20224;-73
2023/03/21 05:38:50;;;;;;;3.37;3.07;;;11.30;38.50;;;;;;10453022;28;20610;-71
2023/03/21 05:43:55;;;;;;;3.80;3.50;;;11.40;38.60;;;;;;10454810;28;20243;-71
2023/03/21 05:48:58;;;;;;;3.63;3.33;;;11.40;38.80;;;;;;10450860;28;20234;-74
2023/03/21 05:54:01;;;;;;;4.97;4.57;;;11.50;38.70;;;;;;10455327;28;20236;-73
2023/03/21 05:59:06;;;;;;;10.17;9.00;;;11.50;38.60;;;;;;10451919;28;20693;-71
2023/03/21 06:04:09;;;;;;;4.93;4.50;;;11.40;38.80;;;;;;10461979;28;20225;-71
2023/03/21 06:09:13;;;;;;;10.73;9.73;;;11.40;38.60;;;;;;10460425;28;20224;-72
2023/03/21 06:14:17;;;;;;;5.07;4.60;;;11.40;38.70;;;;;;10464132;28;20224;-72
2023/03/21 06:19:21;;;;;;;8.63;4.00;;;11.40;39.10;;;;;;10456836;28;20224;-70
2023/03/21 06:24:25;;;;;;;4.30;3.90;;;11.40;39.90;;;;;;10456486;28;20240;-70
2023/03/21 06:29:30;;;;;;;4.93;3.93;;;11.40;39.60;;;;;;10453579;28;20263;-71
2023/03/21 06:34:33;;;;;;;3.73;3.43;;;11.40;39.80;;;;;;10457575;28;20751;-73
2023/03/21 06:39:36;;;;;;;4.27;3.87;;;11.50;39.60;;;;;;10456282;28;20232;-71
2023/03/21 06:44:41;;;;;;;4.73;4.10;;;11.60;39.70;;;;;;10459018;28;20231;-71
2023/03/21 06:49:44;;;;;;;5.43;4.07;;;11.60;40.00;;;;;;10457260;28;20238;-71
2023/03/21 06:54:47;;;;;;;4.53;4.13;;;11.60;39.90;;;;;;10461274;28;20225;-71
2023/03/21 06:59:52;;;;;;;4.07;3.73;;;11.60;39.90;;;;;;10456990;28;20232;-71
2023/03/21 07:04:55;;;;;;;4.60;4.20;;;11.70;40.20;;;;;;10455867;28;20235;-72
2023/03/21 07:09:58;;;;;;;5.07;4.57;;;11.70;40.00;;;;;;10462943;28;20250;-71
2023/03/21 07:15:03;;;;;;;3.83;3.53;;;11.70;40.00;;;;;;10458177;28;20229;-73
2023/03/21 07:20:07;;;;;;;5.40;4.40;;;11.80;40.40;;;;;;10458006;28;21017;-72
2023/03/21 07:25:11;;;;;;;4.17;3.87;;;11.80;40.20;;;;;;10460146;28;20235;-72
2023/03/21 07:30:16;;;;;;;6.70;6.10;;;11.80;40.20;;;;;;10458760;28;20246;-72
2023/03/21 07:35:19;;;;;;;5.67;4.93;;;11.90;40.60;;;;;;10460448;28;20221;-71
2023/03/21 07:40:23;;;;;;;5.17;4.67;;;11.90;40.30;;;;;;10455641;28;20240;-70
2023/03/21 07:45:27;;;;;;;7.20;6.50;;;12.00;40.40;;;;;;10457678;28;20244;-71
2023/03/21 07:50:30;;;;;;;5.80;5.30;;;12.10;40.50;;;;;;10462830;28;20414;-71
2023/03/21 07:55:34;;;;;;;10.20;5.03;;;12.20;40.30;;;;;;10461690;28;20623;-72
2023/03/21 08:00:39;;;;;;;5.10;4.70;;;12.30;40.20;;;;;;10461216;28;20638;-71
2023/03/21 08:05:43;;;;;;;4.93;4.53;;;12.40;40.60;;;;;;10457278;28;20275;-72
2023/03/21 08:10:46;;;;;;;4.70;4.30;;;12.40;40.20;;;;;;10455384;28;20507;-72
2023/03/21 08:15:50;;;;;;;5.37;4.97;;;12.50;40.20;;;;;;10460721;28;20781;-72
2023/03/21 08:20:54;;;;;;;5.23;4.73;;;12.70;40.20;;;;;;10459369;28;20240;-72
2023/03/21 08:25:57;;;;;;;5.73;5.23;;;12.80;40.30;;;;;;10461424;28;20362;-72
2023/03/21 08:31:07;;;;;;;5.23;4.73;;;12.90;40.20;;;;;;10457019;28;20533;-72
2023/03/21 08:36:12;;;;;;;4.90;4.50;;;13.00;40.20;;;;;;10455622;28;20228;-72
2023/03/21 08:41:15;;;;;;;6.10;5.50;;;13.20;40.10;;;;;;10454783;28;20321;-72
2023/03/21 08:46:20;;;;;;;5.53;5.03;;;13.30;39.80;;;;;;10448466;28;20341;-72
2023/03/21 08:51:23;;;;;;;6.50;5.90;;;13.50;39.80;;;;;;10451100;28;20290;-71
2023/03/21 08:56:26;;;;;;;5.97;5.40;;;13.60;39.40;;;;;;10456061;28;20236;-74
2023/03/21 09:01:31;;;;;;;5.40;4.90;;;13.80;39.40;;;;;;10455794;28;20247;-74
2023/03/21 09:06:34;;;;;;;6.17;4.87;;;13.90;38.90;;;;;;10454985;28;20232;-73
2023/03/21 09:11:38;;;;;;;6.10;4.67;;;14.10;39.40;;;;;;10458673;28;20314;-73
2023/03/21 09:16:42;;;;;;;5.07;4.57;;;14.20;39.30;;;;;;10453576;28;20281;-73
2023/03/21 09:21:46;;;;;;;4.87;4.47;;;14.40;39.00;;;;;;10452662;28;20915;-73
2023/03/21 09:26:50;;;;;;;5.93;5.43;;;14.60;38.60;;;;;;10452260;28;20228;-73
2023/03/21 09:31:56;;;;;;;5.53;5.00;;;14.90;38.20;;;;;;10453398;28;20223;-73
2023/03/21 09:36:59;;;;;;;5.50;5.00;;;15.10;38.40;;;;;;10444319;28;20732;-73
2023/03/21 09:42:16;;;;;;;4.13;3.83;;;15.30;38.20;;;;;;10444458;28;20228;-73
2023/03/21 09:47:23;;;;;;;4.10;3.80;;;15.40;36.70;;;;;;10457593;28;20661;-73
2023/03/21 09:52:33;;;;;;;4.30;4.00;;;15.60;36.80;;;;;;10461599;28;20221;-73
2023/03/21 09:57:41;;;;;;;4.53;3.87;;;15.80;36.60;;;;;;10463354;28;20229;-73
2023/03/21 10:02:50;;;;;;;11.93;5.97;;;16.00;36.80;;;;;;10461737;28;20225;-73
2023/03/21 10:07:58;;;;;;;5.37;4.87;;;16.20;36.70;;;;;;10467377;28;20228;-73
2023/03/21 10:13:01;;;;;;;5.20;4.80;;;16.30;36.00;;;;;;10458725;28;20236;-74
2023/03/21 10:18:07;;;;;;;4.83;4.43;;;16.50;36.70;;;;;;10460877;28;20254;-73
2023/03/21 10:23:14;;;;;;;5.20;4.80;;;16.50;35.40;;;;;;10448005;28;20272;-73
2023/03/21 10:28:21;;;;;;;4.83;4.43;;;16.60;35.30;;;;;;10455368;28;20275;-73
2023/03/21 10:33:28;;;;;;;4.80;4.40;;;16.70;35.30;;;;;;10457490;28;20314;-73
2023/03/21 10:38:31;;;;;;;4.57;4.10;;;16.80;35.10;;;;;;10461871;28;20231;-72
2023/03/21 10:43:37;;;;;;;5.00;4.57;;;16.80;36.00;;;;;;10454755;28;20574;-72
2023/03/21 10:48:45;;;;;;;4.33;3.93;;;17.00;35.00;;;;;;10459865;28;20227;-72
2023/03/21 10:53:53;;;;;;;4.27;3.80;;;17.20;35.00;;;;;;10457150;28;20395;-73
2023/03/21 10:58:59;;;;;;;3.40;3.20;;;17.30;34.10;;;;;;10453069;28;20236;-72
2023/03/21 11:04:08;;;;;;;3.33;3.03;;;17.40;34.30;;;;;;10451766;28;20233;-72
2023/03/21 11:09:16;;;;;;;3.97;3.67;;;17.40;34.20;;;;;;10452471;28;20230;-72
2023/03/21 11:14:38;;;;;;;3.50;3.20;;;17.50;33.40;;;;;;10452157;28;20604;-72
2023/03/21 11:19:47;;;;;;;3.70;3.40;;;17.60;33.50;;;;;;10449757;28;20232;-72
2023/03/21 11:24:57;;;;;;;3.33;3.03;;;17.60;32.50;;;;;;10450591;28;20906;-72
2023/03/21 11:30:03;;;;;;;3.47;3.17;;;17.60;34.40;;;;;;10448539;28;20236;-72
2023/03/21 11:35:16;;;;;;;3.57;3.27;;;17.70;34.10;;;;;;10451100;28;20251;-72
2023/03/21 11:40:24;;;;;;;3.40;3.13;;;17.70;32.70;;;;;;10448682;28;20240;-72
2023/03/21 11:45:29;;;;;;;3.07;2.77;;;17.80;33.80;;;;;;10445938;28;20258;-72
2023/03/21 11:50:37;;;;;;;3.20;3.00;;;17.80;33.30;;;;;;10443021;28;20228;-72
2023/03/21 11:55:56;;;;;;;3.20;3.00;;;18.00;33.40;;;;;;10450627;28;20651;-72
2023/03/21 12:01:08;;;;;;;3.20;3.00;;;18.00;33.20;;;;;;10452297;28;20228;-72
2023/03/21 12:06:22;;;;;;;3.33;3.13;;;18.20;32.70;;;;;;10459105;28;20768;-73
2023/03/21 12:11:36;;;;;;;3.40;3.10;;;18.20;31.40;;;;;;10454612;28;20235;-76
2023/03/21 12:16:49;;;;;;;4.10;3.67;;;18.30;31.60;;;;;;10449727;28;20235;-76
2023/03/21 12:22:00;;;;;;;3.70;3.40;;;18.20;31.10;;;;;;10455998;28;20228;-77
2023/03/21 12:27:14;;;;;;;3.33;3.03;;;18.30;31.50;;;;;;10460356;28;20546;-77
2023/03/21 12:32:30;;;;;;;3.27;2.97;;;18.30;31.70;;;;;;10454090;28;20236;-77
2023/03/21 12:37:48;;;;;;;3.63;3.33;;;18.30;31.40;;;;;;10460658;28;20721;-77
2023/03/21 12:43:07;;;;;;;3.50;3.20;;;18.40;31.40;;;;;;10452841;28;20235;-78
2023/03/21 12:48:18;;;;;;;3.67;3.37;;;18.40;31.20;;;;;;10459950;28;20223;-77
2023/03/21 12:53:44;;;;;;;2.83;2.63;;;18.40;29.90;;;;;;10460989;28;20400;-77
2023/03/21 12:58:51;;;;;;;3.03;2.77;;;18.30;30.40;;;;;;10462188;28;20680;-78
2023/03/21 13:04:09;;;;;;;2.87;2.67;;;18.30;30.50;;;;;;10455453;28;20224;-77
2023/03/21 13:09:20;;;;;;;3.27;2.97;;;18.20;30.30;;;;;;10461517;28;20220;-77
2023/03/21 13:14:43;;;;;;;2.90;2.60;;;18.20;30.30;;;;;;10452338;28;20242;-75
2023/03/21 13:19:55;;;;;;;3.03;2.57;;;18.20;30.20;;;;;;10457313;28;20474;-77
2023/03/21 13:25:06;;;;;;;3.20;3.00;;;18.20;29.80;;;;;;10457697;28;20236;-77
2023/03/21 13:30:19;;;;;;;3.00;2.60;;;18.20;29.70;;;;;;10461195;28;20270;-76
2023/03/21 13:35:26;;;;;;;3.60;3.40;;;18.30;29.60;;;;;;10458737;28;20232;-77
2023/03/21 13:40:38;;;;;;;3.70;3.40;;;18.30;30.70;;;;;;10457237;28;20232;-77
2023/03/21 13:45:51;;;;;;;3.33;3.13;;;18.40;29.60;;;;;;10453395;28;20727;-77
2023/03/21 13:51:01;;;;;;;3.37;3.07;;;18.40;30.00;;;;;;10457262;28;20220;-75
2023/03/21 13:56:23;;;;;;;4.10;3.03;;;18.50;29.60;;;;;;10462900;28;20251;-76
2023/03/21 14:01:34;;;;;;;3.47;3.17;;;18.60;29.50;;;;;;10456457;28;20228;-74
2023/03/21 14:06:44;;;;;;;3.70;3.40;;;18.50;28.60;;;;;;10458079;28;20236;-70
2023/03/21 14:11:51;;;;;;;3.73;3.07;;;18.50;29.80;;;;;;10453691;28;20228;-77
2023/03/21 14:16:58;;;;;;;3.47;3.27;;;18.50;31.00;;;;;;10467924;28;20235;-76
2023/03/21 14:22:01;;;;;;;3.57;3.30;;;18.60;30.50;;;;;;10455701;28;20228;-76
2023/03/21 14:27:09;;;;;;;3.00;2.80;;;18.60;30.30;;;;;;10454807;28;20826;-75
2023/03/21 14:32:19;;;;;;;3.33;3.07;;;18.70;30.00;;;;;;10468027;28;20220;-75
2023/03/21 14:37:30;;;;;;;3.33;3.13;;;18.70;29.70;;;;;;10466671;28;20240;-76
2023/03/21 14:42:37;;;;;;;3.33;3.03;;;18.70;29.40;;;;;;10466161;28;20228;-75
2023/03/21 14:47:40;;;;;;;3.83;3.33;;;18.80;30.00;;;;;;10466546;28;20740;-76
2023/03/21 14:52:43;;;;;;;3.73;3.40;;;18.80;30.30;;;;;;10463367;28;20339;-75
2023/03/21 14:57:48;;;;;;;3.73;3.43;;;18.80;30.20;;;;;;10461500;28;20242;-76
2023/03/21 15:02:53;;;;;;;4.00;3.70;;;18.80;29.80;;;;;;10460908;28;20224;-76
2023/03/21 15:07:58;;;;;;;3.63;3.43;;;18.80;30.00;;;;;;10463666;28;20286;-76
2023/03/21 15:13:14;;;;;;;3.57;3.37;;;18.70;30.00;;;;;;10462106;28;20237;-76
2023/03/21 15:18:25;;;;;;;6.47;5.87;;;18.70;29.40;;;;;;10467323;28;20240;-76
2023/03/21 15:23:33;;;;;;;4.43;4.00;;;18.70;30.10;;;;;;10464354;28;20236;-77
2023/03/21 15:28:37;;;;;;;4.73;3.80;;;18.70;29.60;;;;;;10464364;28;20580;-76
2023/03/21 15:33:41;;;;;;;3.67;3.47;;;18.70;29.90;;;;;;10462292;28;20243;-76
2023/03/21 15:38:47;;;;;;;4.10;3.80;;;18.70;30.20;;;;;;10452563;28;20701;-70
2023/03/21 15:44:04;;;;;;;3.80;3.50;;;18.70;30.00;;;;;;10465615;28;20224;-73
2023/03/21 15:49:09;;;;;;;4.20;3.80;;;18.70;29.20;;;;;;10462728;28;20227;-73
2023/03/21 15:54:16;;;;;;;4.73;3.73;;;18.60;29.90;;;;;;10457919;28;20579;-72
2023/03/21 15:59:23;;;;;;;4.20;3.80;;;18.60;29.80;;;;;;10456780;28;20224;-74
2023/03/21 16:04:26;;;;;;;3.13;2.93;;;18.60;29.70;;;;;;10465883;28;20569;-74
2023/03/21 16:09:39;;;;;;;3.67;3.37;;;18.60;30.10;;;;;;10460241;28;20716;-75
2023/03/21 16:14:46;;;;;;;3.83;3.53;;;18.60;29.40;;;;;;10453295;28;20855;-75
2023/03/21 16:19:49;;;;;;;3.50;3.20;;;18.70;29.90;;;;;;10458511;28;20311;-75
2023/03/21 16:24:53;;;;;;;5.17;2.80;;;18.70;30.00;;;;;;10460173;28;20237;-75
2023/03/21 16:29:57;;;;;;;3.23;2.50;;;18.60;30.00;;;;;;10461058;28;20228;-74
2023/03/21 16:35:01;;;;;;;3.10;2.80;;;18.70;30.00;;;;;;10457433;28;20228;-71
2023/03/21 16:40:10;;;;;;;2.67;2.47;;;18.60;30.00;;;;;;10459017;28;20227;-72
2023/03/21 16:45:15;;;;;;;2.77;2.57;;;18.60;30.00;;;;;;10454763;28;20594;-72
2023/03/21 16:50:24;;;;;;;2.57;2.37;;;18.70;29.90;;;;;;10457196;28;20220;-71
2023/03/21 16:55:27;;;;;;;18.07;8.10;;;18.70;29.90;;;;;;10453259;28;20248;-71
2023/03/21 17:00:36;;;;;;;30.47;26.50;;;18.70;30.10;;;;;;10456329;28;20224;-71
2023/03/21 17:05:40;;;;;;;7.70;6.60;;;18.70;29.90;;;;;;10455010;28;20232;-70
2023/03/21 17:10:43;;;;;;;4.00;3.60;;;18.70;30.10;;;;;;10446690;28;20229;-70
2023/03/21 17:15:47;;;;;;;3.33;3.07;;;18.70;30.00;;;;;;10448764;28;20225;-70
2023/03/21 17:20:52;;;;;;;2.97;2.77;;;18.60;29.90;;;;;;10451002;28;20228;-70
2023/03/21 17:25:55;;;;;;;2.40;2.20;;;18.60;30.00;;;;;;10457104;28;20673;-73
2023/03/21 17:30:59;;;;;;;3.83;3.00;;;18.60;30.10;;;;;;10453118;28;20231;-70
2023/03/21 17:36:04;;;;;;;3.00;2.73;;;18.50;30.10;;;;;;10454681;28;20233;-73
2023/03/21 17:41:11;;;;;;;2.70;2.50;;;18.50;30.30;;;;;;10452886;28;20224;-73
2023/03/21 17:46:18;;;;;;;2.73;2.53;;;18.40;30.30;;;;;;10453003;28;20230;-73
2023/03/21 17:51:24;;;;;;;2.10;1.90;;;18.40;30.40;;;;;;10453621;28;20596;-74
2023/03/21 17:56:29;;;;;;;2.23;2.03;;;18.30;30.50;;;;;;10453700;28;20310;-73
2023/03/21 18:01:35;;;;;;;2.80;2.47;;;18.30;30.50;;;;;;10451766;28;20306;-74
2023/03/21 18:06:40;;;;;;;2.37;2.17;;;18.20;30.50;;;;;;10460989;28;20303;-74
2023/03/21 18:11:44;;;;;;;2.40;2.20;;;18.20;30.50;;;;;;10459793;28;20235;-74
2023/03/21 18:16:52;;;;;;;2.77;2.47;;;18.10;30.50;;;;;;10461710;28;20223;-74
2023/03/21 18:21:56;;;;;;;5.47;4.43;;;18.00;30.50;;;;;;10461483;28;20224;-73
2023/03/21 18:26:59;;;;;;;7.07;5.67;;;18.00;30.60;;;;;;10448483;28;20311;-71
2023/03/21 18:32:04;;;;;;;7.60;6.90;;;17.90;30.60;;;;;;10461941;28;20251;-72
2023/03/21 18:37:10;;;;;;;7.10;6.00;;;17.80;30.70;;;;;;10453232;28;20786;-72
2023/03/21 18:42:16;;;;;;;7.90;5.67;;;17.70;30.80;;;;;;10459435;28;20229;-71
2023/03/21 18:47:24;;;;;;;7.53;6.20;;;17.60;31.00;;;;;;10459397;28;20225;-75
2023/03/21 18:52:27;;;;;;;6.00;5.40;;;17.60;31.10;;;;;;10456083;28;20707;-74
2023/03/21 18:57:31;;;;;;;6.67;4.90;;;17.60;31.30;;;;;;10453297;28;20255;-74
2023/03/21 19:02:42;;;;;;;5.47;4.97;;;17.50;31.10;;;;;;10455400;28;20411;-71
2023/03/21 19:07:50;;;;;;;5.73;5.23;;;17.40;31.10;;;;;;10451473;28;20248;-72
2023/03/21 19:12:54;;;;;;;4.87;4.50;;;17.40;31.20;;;;;;10454167;28;20224;-72
2023/03/21 19:17:59;;;;;;;5.33;4.93;;;17.30;31.50;;;;;;10448384;28;20232;-74
2023/03/21 19:23:22;;;;;;;6.77;6.07;;;17.20;31.70;;;;;;10450726;28;20313;-72
2023/03/21 19:28:25;;;;;;;6.27;5.67;;;17.10;31.50;;;;;;10452524;28;20229;-74
2023/03/21 19:33:30;;;;;;;27.43;24.97;;;17.00;31.60;;;;;;10456821;28;20264;-73
2023/03/21 19:38:33;;;;;;;37.70;34.40;;;16.90;31.80;;;;;;10467958;28;20223;-74
2023/03/21 19:43:36;;;;;;;13.20;12.10;;;16.70;31.80;;;;;;10454135;28;20224;-71
2023/03/21 19:48:44;;;;;;;10.40;9.40;;;16.50;32.20;;;;;;10454514;28;20224;-74
2023/03/21 19:53:47;;;;;;;8.57;7.70;;;16.50;32.50;;;;;;10465082;28;20228;-72
2023/03/21 19:58:50;;;;;;;7.80;7.00;;;16.40;32.40;;;;;;10456764;28;20580;-74
2023/03/21 20:03:55;;;;;;;5.67;5.17;;;16.30;32.40;;;;;;10455469;28;20662;-74
2023/03/21 20:08:58;;;;;;;5.33;4.83;;;16.30;33.00;;;;;;10454651;28;20221;-71
2023/03/21 20:14:21;;;;;;;4.70;3.97;;;16.20;32.60;;;;;;10449914;28;20329;-71
2023/03/21 20:19:27;;;;;;;5.30;4.73;;;16.20;32.70;;;;;;10449886;28;20279;-74
2023/03/21 20:24:30;;;;;;;13.93;11.53;;;16.20;33.20;;;;;;10448849;28;20648;-71
2023/03/21 20:29:33;;;;;;;8.10;6.20;;;16.20;33.50;;;;;;10449539;28;20607;-70
2023/03/21 20:34:58;;;;;;;9.27;8.47;;;16.00;33.00;;;;;;10449493;28;20228;-71
2023/03/21 20:40:20;;;;;;;9.57;8.57;;;15.90;32.90;;;;;;10443919;28;20298;-74
2023/03/21 20:45:23;;;;;;;7.27;6.57;;;15.70;32.70;;;;;;10446782;28;20541;-74
2023/03/21 20:50:31;;;;;;;6.83;6.23;;;15.60;32.60;;;;;;10454554;28;20232;-73
2023/03/21 20:55:36;;;;;;;6.63;6.03;;;15.50;33.00;;;;;;10444861;28;20331;-73
2023/03/21 21:00:39;;;;;;;7.63;5.80;;;15.60;32.80;;;;;;10450251;28;20222;-70
2023/03/21 21:05:46;;;;;;;4.93;4.53;;;15.60;32.90;;;;;;10446325;28;20449;-70
2023/03/21 21:10:49;;;;;;;5.03;4.50;;;15.50;33.10;;;;;;10449434;28;20614;-71
2023/03/21 21:16:13;;;;;;;4.93;4.47;;;15.50;32.80;;;;;;10450062;28;20762;-74
2023/03/21 21:21:18;;;;;;;4.30;4.00;;;15.40;32.90;;;;;;10445590;28;20755;-76
2023/03/21 21:26:21;;;;;;;5.30;4.27;;;15.40;33.00;;;;;;10447557;28;20239;-73
2023/03/21 21:31:24;;;;;;;4.77;4.30;;;15.40;32.80;;;;;;10451032;28;20238;-72
2023/03/21 21:36:28;;;;;;;4.13;3.73;;;15.30;32.90;;;;;;10447360;28;20232;-73
2023/03/21 21:41:32;;;;;;;5.33;4.20;;;15.30;33.30;;;;;;10456915;28;20670;-72
2023/03/21 21:46:35;;;;;;;5.07;4.60;;;15.30;33.10;;;;;;10458237;28;20228;-72
2023/03/21 21:51:40;;;;;;;4.50;4.10;;;15.30;33.10;;;;;;10456307;28;20232;-72
2023/03/21 21:56:47;;;;;;;4.73;3.97;;;15.30;33.40;;;;;;10457455;28;20239;-74
2023/03/21 22:01:51;;;;;;;4.50;4.10;;;15.20;33.00;;;;;;10451484;28;20341;-74
2023/03/21 22:06:55;;;;;;;3.80;3.50;;;15.20;33.20;;;;;;10457085;28;20225;-70
2023/03/21 22:11:59;;;;;;;3.30;3.03;;;15.20;33.40;;;;;;10457367;28;20237;-70
2023/03/21 22:17:02;;;;;;;4.27;3.87;;;15.10;33.10;;;;;;10454765;28;20232;-71
2023/03/21 22:22:07;;;;;;;4.57;3.73;;;15.00;33.10;;;;;;10456479;28;20247;-70
2023/03/21 22:27:10;;;;;;;5.10;3.70;;;14.90;33.50;;;;;;10452333;28;20227;-70
2023/03/21 22:32:13;;;;;;;6.00;5.30;;;14.90;33.40;;;;;;10457074;28;20232;-70
2023/03/21 22:37:18;;;;;;;5.97;5.47;;;14.80;33.50;;;;;;10459596;28;20612;-70
2023/03/21 22:42:21;;;;;;;5.13;4.63;;;14.60;33.80;;;;;;10458841;28;20228;-70
2023/03/21 22:47:24;;;;;;;4.20;3.80;;;14.40;33.80;;;;;;10455180;28;20235;-70
2023/03/21 22:52:28;;;;;;;5.20;4.70;;;14.30;33.90;;;;;;10453988;28;20366;-70
2023/03/21 22:57:32;;;;;;;5.67;5.17;;;14.20;34.20;;;;;;10452861;28;20278;-71
2023/03/21 23:02:35;;;;;;;5.53;5.03;;;14.30;34.10;;;;;;10461927;28;20239;-70
2023/03/21 23:07:39;;;;;;;4.57;4.17;;;14.20;34.00;;;;;;10455420;28;20232;-70
2023/03/21 23:12:42;;;;;;;5.77;4.63;;;14.20;34.30;;;;;;10454288;28;20236;-70
2023/03/21 23:17:46;;;;;;;5.60;5.10;;;14.10;34.20;;;;;;10454229;28;20883;-70
2023/03/21 23:22:51;;;;;;;5.07;4.60;;;13.90;34.10;;;;;;10451086;28;20243;-70
2023/03/21 23:27:54;;;;;;;5.13;4.70;;;13.70;34.70;;;;;;10454171;28;20229;-70
2023/03/21 23:32:57;;;;;;;5.33;4.43;;;13.60;34.70;;;;;;10458442;28;20720;-70
2023/03/21 23:38:02;;;;;;;5.20;4.30;;;13.60;34.70;;;;;;10459754;28;20254;-70
2023/03/21 23:43:05;;;;;;;5.20;4.33;;;13.60;35.00;;;;;;10456668;28;20229;-71
2023/03/21 23:48:08;;;;;;;4.97;4.30;;;13.60;34.70;;;;;;10459975;28;20235;-70
2023/03/21 23:53:13;;;;;;;5.30;4.73;;;13.70;34.80;;;;;;10458031;28;20262;-70
2023/03/21 23:58:16;;;;;;;5.23;4.70;;;13.70;35.10;;;;;;10460550;28;20225;-70
